LGKV/KVA METAR and TAF weather

Enter ICAO airport designator
Station Type Date Time Source
LGKV METAR 2021/01/15 17:50 UTC NOAA

LGKV 151750Z 01004KT 9999 FEW030 03/M01 Q1015


Station Type Date Time Source
LGKV Decoded METAR 2021/01/15 17:50 UTC NOAA

Chrysoupoli Airport , Greece (LGKV) 40-59N 024-36E 5M
Jan 15, 2021 - 12:50 PM EST / 2021.01.15 1750 UTC
Wind: from the N (010 degrees) at 5 MPH (4 KT):0
Visibility: greater than 7 mile(s):0
Sky conditions: mostly clear
Temperature: 37 F (3 C)
Dew Point: 30 F (-1 C)
Relative Humidity: 74%
Pressure (altimeter): 29.97 in. Hg (1015 hPa)
ob: LGKV 151750Z 01004KT 9999 FEW030 03/M01 Q1015
cycle: 18

Station Type Date Time Source
LGKV TAF 2021/01/15 18:12 UTC NOAA

TAF LGKV 151700Z 1518/1618 VRB03KT 9999 FEW008 SCT025
BECMG 1522/1524 07012KT FEW008 BKN025 BKN070
TEMPO 1609/1618 3000 SN SCT006 OVC020

Example: see airport list